sensor_id;sensor_type;location;lat;lon;timestamp;temperature;humidity
59556;DHT22;45374;52.746;6.304;2023-02-28T00:00:27;3.00;99.90
59556;DHT22;45374;52.746;6.304;2023-02-28T00:02:53;3.00;99.90
59556;DHT22;45374;52.746;6.304;2023-02-28T00:05:20;3.10;99.90
59556;DHT22;45374;52.746;6.304;2023-02-28T00:07:47;3.10;99.90
59556;DHT22;45374;52.746;6.304;2023-02-28T00:10:14;3.10;99.90
59556;DHT22;45374;52.746;6.304;2023-02-28T00:12:41;3.10;99.90
59556;DHT22;45374;52.746;6.304;2023-02-28T00:15:10;3.10;99.90
59556;DHT22;45374;52.746;6.304;2023-02-28T00:17:37;3.10;99.90
59556;DHT22;45374;52.746;6.304;2023-02-28T00:20:04;3.20;99.90
59556;DHT22;45374;52.746;6.304;2023-02-28T00:22:31;3.30;99.90
59556;DHT22;45374;52.746;6.304;2023-02-28T00:24:57;3.30;99.90
59556;DHT22;45374;52.746;6.304;2023-02-28T00:27:22;3.20;99.90
59556;DHT22;45374;52.746;6.304;2023-02-28T00:29:48;3.20;99.90
59556;DHT22;45374;52.746;6.304;2023-02-28T00:32:14;3.20;99.90
59556;DHT22;45374;52.746;6.304;2023-02-28T00:34:39;3.20;99.90
59556;DHT22;45374;52.746;6.304;2023-02-28T00:37:06;3.20;99.90
59556;DHT22;45374;52.746;6.304;2023-02-28T00:39:36;3.20;99.90
59556;DHT22;45374;52.746;6.304;2023-02-28T00:42:03;3.20;99.90
59556;DHT22;45374;52.746;6.304;2023-02-28T00:44:29;3.20;99.90
59556;DHT22;45374;52.746;6.304;2023-02-28T00:46:56;3.20;99.90
59556;DHT22;45374;52.746;6.304;2023-02-28T00:49:22;3.20;99.90
59556;DHT22;45374;52.746;6.304;2023-02-28T00:51:48;3.20;99.90
59556;DHT22;45374;52.746;6.304;2023-02-28T00:54:14;3.20;99.90
59556;DHT22;45374;52.746;6.304;2023-02-28T00:56:40;3.20;99.90
59556;DHT22;45374;52.746;6.304;2023-02-28T00:59:05;3.20;99.90
59556;DHT22;45374;52.746;6.304;2023-02-28T01:01:31;3.20;99.90
59556;DHT22;45374;52.746;6.304;2023-02-28T01:03:57;3.20;99.90
59556;DHT22;45374;52.746;6.304;2023-02-28T01:06:22;3.20;99.90
59556;DHT22;45374;52.746;6.304;2023-02-28T01:08:48;3.20;99.90
59556;DHT22;45374;52.746;6.304;2023-02-28T01:11:16;3.20;99.90
59556;DHT22;45374;52.746;6.304;2023-02-28T01:13:42;3.20;99.90
59556;DHT22;45374;52.746;6.304;2023-02-28T01:16:08;3.20;99.90
59556;DHT22;45374;52.746;6.304;2023-02-28T01:18:33;3.20;99.90
59556;DHT22;45374;52.746;6.304;2023-02-28T01:21:10;3.20;99.90
59556;DHT22;45374;52.746;6.304;2023-02-28T01:23:36;3.20;99.90
59556;DHT22;45374;52.746;6.304;2023-02-28T01:26:10;3.20;99.90
59556;DHT22;45374;52.746;6.304;2023-02-28T01:28:36;3.20;99.90
59556;DHT22;45374;52.746;6.304;2023-02-28T01:31:02;3.20;99.90
59556;DHT22;45374;52.746;6.304;2023-02-28T01:33:28;3.20;99.90
59556;DHT22;45374;52.746;6.304;2023-02-28T01:36:00;3.20;99.90
59556;DHT22;45374;52.746;6.304;2023-02-28T01:38:27;3.20;99.90
59556;DHT22;45374;52.746;6.304;2023-02-28T01:40:52;3.20;99.90
59556;DHT22;45374;52.746;6.304;2023-02-28T01:43:26;3.20;99.90
59556;DHT22;45374;52.746;6.304;2023-02-28T01:45:53;3.20;99.90
59556;DHT22;45374;52.746;6.304;2023-02-28T01:48:31;3.20;99.90
59556;DHT22;45374;52.746;6.304;2023-02-28T01:51:02;3.20;99.90
59556;DHT22;45374;52.746;6.304;2023-02-28T01:53:33;3.20;99.90
59556;DHT22;45374;52.746;6.304;2023-02-28T01:56:00;3.20;99.90
59556;DHT22;45374;52.746;6.304;2023-02-28T01:58:29;3.10;99.90
59556;DHT22;45374;52.746;6.304;2023-02-28T02:00:54;3.10;99.90
59556;DHT22;45374;52.746;6.304;2023-02-28T02:03:20;3.10;99.90
59556;DHT22;45374;52.746;6.304;2023-02-28T02:05:46;3.10;99.90
59556;DHT22;45374;52.746;6.304;2023-02-28T02:08:21;3.10;99.90
59556;DHT22;45374;52.746;6.304;2023-02-28T02:10:50;3.10;99.90
59556;DHT22;45374;52.746;6.304;2023-02-28T02:18:51;3.10;99.90
59556;DHT22;45374;52.746;6.304;2023-02-28T02:38:18;3.20;99.90
59556;DHT22;45374;52.746;6.304;2023-02-28T02:40:58;3.30;99.90
59556;DHT22;45374;52.746;6.304;2023-02-28T02:43:38;3.20;99.90
59556;DHT22;45374;52.746;6.304;2023-02-28T02:46:14;3.30;99.90
59556;DHT22;45374;52.746;6.304;2023-02-28T02:48:44;3.30;99.90
59556;DHT22;45374;52.746;6.304;2023-02-28T02:51:14;3.30;99.90
59556;DHT22;45374;52.746;6.304;2023-02-28T02:53:56;3.30;99.90
59556;DHT22;45374;52.746;6.304;2023-02-28T02:56:27;3.30;99.90
59556;DHT22;45374;52.746;6.304;2023-02-28T02:58:55;3.30;99.90
59556;DHT22;45374;52.746;6.304;2023-02-28T03:01:23;3.30;99.90
59556;DHT22;45374;52.746;6.304;2023-02-28T03:03:58;3.30;99.90
59556;DHT22;45374;52.746;6.304;2023-02-28T03:06:25;3.20;99.90
59556;DHT22;45374;52.746;6.304;2023-02-28T03:08:51;3.20;99.90
59556;DHT22;45374;52.746;6.304;2023-02-28T03:11:17;3.20;99.90
59556;DHT22;45374;52.746;6.304;2023-02-28T03:26:57;3.10;99.90
59556;DHT22;45374;52.746;6.304;2023-02-28T03:29:35;3.00;99.90
59556;DHT22;45374;52.746;6.304;2023-02-28T03:32:11;3.10;99.90
59556;DHT22;45374;52.746;6.304;2023-02-28T03:35:05;3.00;99.90
59556;DHT22;45374;52.746;6.304;2023-02-28T03:37:34;3.00;99.90
59556;DHT22;45374;52.746;6.304;2023-02-28T03:40:23;3.00;99.90
59556;DHT22;45374;52.746;6.304;2023-02-28T03:42:56;3.00;99.90
59556;DHT22;45374;52.746;6.304;2023-02-28T03:45:26;3.00;99.90
59556;DHT22;45374;52.746;6.304;2023-02-28T03:47:58;3.00;99.90
59556;DHT22;45374;52.746;6.304;2023-02-28T03:50:37;2.90;99.90
59556;DHT22;45374;52.746;6.304;2023-02-28T03:53:24;2.90;99.90
59556;DHT22;45374;52.746;6.304;2023-02-28T04:01:25;2.90;99.90
59556;DHT22;45374;52.746;6.304;2023-02-28T04:03:53;2.90;99.90
59556;DHT22;45374;52.746;6.304;2023-02-28T04:06:21;2.80;99.90
59556;DHT22;45374;52.746;6.304;2023-02-28T04:08:47;2.80;99.90
59556;DHT22;45374;52.746;6.304;2023-02-28T04:11:38;2.80;99.90
59556;DHT22;45374;52.746;6.304;2023-02-28T04:14:05;2.70;99.90
59556;DHT22;45374;52.746;6.304;2023-02-28T04:16:32;2.70;99.90
59556;DHT22;45374;52.746;6.304;2023-02-28T04:18:58;2.70;99.90
59556;DHT22;45374;52.746;6.304;2023-02-28T04:21:47;2.60;99.90
59556;DHT22;45374;52.746;6.304;2023-02-28T04:24:20;2.70;99.90
59556;DHT22;45374;52.746;6.304;2023-02-28T04:26:49;2.60;99.90
59556;DHT22;45374;52.746;6.304;2023-02-28T04:29:20;2.60;99.90
59556;DHT22;45374;52.746;6.304;2023-02-28T04:31:46;2.50;99.90
59556;DHT22;45374;52.746;6.304;2023-02-28T04:34:12;2.60;99.90
59556;DHT22;45374;52.746;6.304;2023-02-28T04:36:37;2.50;99.90
59556;DHT22;45374;52.746;6.304;2023-02-28T04:39:03;2.50;99.90
59556;DHT22;45374;52.746;6.304;2023-02-28T04:41:29;2.60;99.90
59556;DHT22;45374;52.746;6.304;2023-02-28T04:43:55;2.50;99.90
59556;DHT22;45374;52.746;6.304;2023-02-28T04:46:22;2.60;99.90
59556;DHT22;45374;52.746;6.304;2023-02-28T04:48:47;2.50;99.90
59556;DHT22;45374;52.746;6.304;2023-02-28T04:51:15;2.40;99.90
59556;DHT22;45374;52.746;6.304;2023-02-28T04:53:42;2.50;99.90
59556;DHT22;45374;52.746;6.304;2023-02-28T04:56:11;2.50;99.90
59556;DHT22;45374;52.746;6.304;2023-02-28T04:58:37;2.40;99.90
59556;DHT22;45374;52.746;6.304;2023-02-28T05:01:13;2.40;99.90
59556;DHT22;45374;52.746;6.304;2023-02-28T05:03:40;2.40;99.90
59556;DHT22;45374;52.746;6.304;2023-02-28T05:06:07;2.40;99.90
59556;DHT22;45374;52.746;6.304;2023-02-28T05:08:32;2.40;99.90
59556;DHT22;45374;52.746;6.304;2023-02-28T05:10:58;2.40;99.90
59556;DHT22;45374;52.746;6.304;2023-02-28T05:13:26;2.40;99.90
59556;DHT22;45374;52.746;6.304;2023-02-28T05:15:51;2.40;99.90
59556;DHT22;45374;52.746;6.304;2023-02-28T05:18:17;2.40;99.90
59556;DHT22;45374;52.746;6.304;2023-02-28T05:20:43;2.40;99.90
59556;DHT22;45374;52.746;6.304;2023-02-28T05:23:11;2.40;99.90
59556;DHT22;45374;52.746;6.304;2023-02-28T05:25:37;2.40;99.90
59556;DHT22;45374;52.746;6.304;2023-02-28T05:28:02;2.40;99.90
59556;DHT22;45374;52.746;6.304;2023-02-28T05:30:28;2.40;99.90
59556;DHT22;45374;52.746;6.304;2023-02-28T05:32:55;2.30;99.90
59556;DHT22;45374;52.746;6.304;2023-02-28T05:35:21;2.30;99.90
59556;DHT22;45374;52.746;6.304;2023-02-28T05:37:46;2.30;99.90
59556;DHT22;45374;52.746;6.304;2023-02-28T05:40:12;2.20;99.90
59556;DHT22;45374;52.746;6.304;2023-02-28T05:42:38;2.20;99.90
59556;DHT22;45374;52.746;6.304;2023-02-28T05:45:04;2.20;99.90
59556;DHT22;45374;52.746;6.304;2023-02-28T05:47:31;2.20;99.90
59556;DHT22;45374;52.746;6.304;2023-02-28T05:49:56;2.30;99.90
59556;DHT22;45374;52.746;6.304;2023-02-28T05:52:22;2.20;99.90
59556;DHT22;45374;52.746;6.304;2023-02-28T05:54:48;2.20;99.90
59556;DHT22;45374;52.746;6.304;2023-02-28T05:57:14;2.20;99.90
59556;DHT22;45374;52.746;6.304;2023-02-28T05:59:40;2.20;99.90
59556;DHT22;45374;52.746;6.304;2023-02-28T06:02:10;2.20;99.90
59556;DHT22;45374;52.746;6.304;2023-02-28T06:04:36;2.20;99.90
59556;DHT22;45374;52.746;6.304;2023-02-28T06:07:01;2.20;99.90
59556;DHT22;45374;52.746;6.304;2023-02-28T06:09:27;2.10;99.90
59556;DHT22;45374;52.746;6.304;2023-02-28T06:11:53;2.10;99.90
59556;DHT22;45374;52.746;6.304;2023-02-28T06:14:20;2.10;99.90
59556;DHT22;45374;52.746;6.304;2023-02-28T06:16:46;2.10;99.90
59556;DHT22;45374;52.746;6.304;2023-02-28T06:19:12;2.20;99.90
59556;DHT22;45374;52.746;6.304;2023-02-28T06:21:38;2.10;99.90
59556;DHT22;45374;52.746;6.304;2023-02-28T06:24:04;2.10;99.90
59556;DHT22;45374;52.746;6.304;2023-02-28T06:26:30;2.10;99.90
59556;DHT22;45374;52.746;6.304;2023-02-28T06:28:56;2.10;99.90
59556;DHT22;45374;52.746;6.304;2023-02-28T06:31:22;2.10;99.90
59556;DHT22;45374;52.746;6.304;2023-02-28T06:33:48;2.00;99.90
59556;DHT22;45374;52.746;6.304;2023-02-28T06:36:16;2.00;99.90
59556;DHT22;45374;52.746;6.304;2023-02-28T06:38:42;2.00;99.90
59556;DHT22;45374;52.746;6.304;2023-02-28T06:41:09;2.00;99.90
59556;DHT22;45374;52.746;6.304;2023-02-28T06:43:38;2.00;99.90
59556;DHT22;45374;52.746;6.304;2023-02-28T06:46:06;1.90;99.90
59556;DHT22;45374;52.746;6.304;2023-02-28T06:48:32;2.00;99.90
59556;DHT22;45374;52.746;6.304;2023-02-28T06:51:09;1.90;99.90
59556;DHT22;45374;52.746;6.304;2023-02-28T06:53:35;2.00;99.90
59556;DHT22;45374;52.746;6.304;2023-02-28T06:56:04;2.00;99.90
59556;DHT22;45374;52.746;6.304;2023-02-28T06:58:31;2.10;99.90
59556;DHT22;45374;52.746;6.304;2023-02-28T07:00:57;2.00;99.90
59556;DHT22;45374;52.746;6.304;2023-02-28T07:03:23;2.00;99.90
59556;DHT22;45374;52.746;6.304;2023-02-28T07:05:48;2.00;99.90
59556;DHT22;45374;52.746;6.304;2023-02-28T07:08:14;2.00;99.90
59556;DHT22;45374;52.746;6.304;2023-02-28T07:10:40;2.10;99.90
59556;DHT22;45374;52.746;6.304;2023-02-28T07:13:07;2.00;99.90
59556;DHT22;45374;52.746;6.304;2023-02-28T07:15:32;2.10;99.90
59556;DHT22;45374;52.746;6.304;2023-02-28T07:17:58;2.00;99.90
59556;DHT22;45374;52.746;6.304;2023-02-28T07:20:24;2.10;99.90
59556;DHT22;45374;52.746;6.304;2023-02-28T07:22:50;2.00;99.90
59556;DHT22;45374;52.746;6.304;2023-02-28T07:25:25;2.10;99.90
59556;DHT22;45374;52.746;6.304;2023-02-28T07:27:51;2.00;99.90
59556;DHT22;45374;52.746;6.304;2023-02-28T07:30:18;2.00;99.90
59556;DHT22;45374;52.746;6.304;2023-02-28T07:32:43;2.10;99.90
59556;DHT22;45374;52.746;6.304;2023-02-28T07:35:09;2.10;99.90
59556;DHT22;45374;52.746;6.304;2023-02-28T07:37:35;2.00;99.90
59556;DHT22;45374;52.746;6.304;2023-02-28T07:40:06;2.10;99.90
59556;DHT22;45374;52.746;6.304;2023-02-28T07:42:34;2.10;99.90
59556;DHT22;45374;52.746;6.304;2023-02-28T07:45:00;2.10;99.90
59556;DHT22;45374;52.746;6.304;2023-02-28T07:47:26;2.00;99.90
59556;DHT22;45374;52.746;6.304;2023-02-28T07:49:51;2.10;99.90
59556;DHT22;45374;52.746;6.304;2023-02-28T07:52:17;2.10;99.90
59556;DHT22;45374;52.746;6.304;2023-02-28T07:54:43;2.20;99.90
59556;DHT22;45374;52.746;6.304;2023-02-28T07:57:08;2.20;99.90
59556;DHT22;45374;52.746;6.304;2023-02-28T07:59:34;2.30;99.90
59556;DHT22;45374;52.746;6.304;2023-02-28T08:01:59;2.30;99.90
59556;DHT22;45374;52.746;6.304;2023-02-28T08:04:25;2.30;99.90
59556;DHT22;45374;52.746;6.304;2023-02-28T08:06:51;2.30;99.90
59556;DHT22;45374;52.746;6.304;2023-02-28T08:09:18;2.30;99.90
59556;DHT22;45374;52.746;6.304;2023-02-28T08:11:44;2.30;99.90
59556;DHT22;45374;52.746;6.304;2023-02-28T08:14:10;2.40;99.90
59556;DHT22;45374;52.746;6.304;2023-02-28T08:16:35;2.40;99.90
59556;DHT22;45374;52.746;6.304;2023-02-28T08:19:01;2.50;99.90
59556;DHT22;45374;52.746;6.304;2023-02-28T08:21:26;2.50;99.90
59556;DHT22;45374;52.746;6.304;2023-02-28T08:23:52;2.60;99.90
59556;DHT22;45374;52.746;6.304;2023-02-28T08:26:18;2.70;99.90
59556;DHT22;45374;52.746;6.304;2023-02-28T08:28:44;2.80;99.90
59556;DHT22;45374;52.746;6.304;2023-02-28T08:31:14;2.90;99.90
59556;DHT22;45374;52.746;6.304;2023-02-28T08:33:41;3.00;99.90
59556;DHT22;45374;52.746;6.304;2023-02-28T08:36:08;3.20;99.90
59556;DHT22;45374;52.746;6.304;2023-02-28T08:38:34;3.20;99.90
59556;DHT22;45374;52.746;6.304;2023-02-28T08:41:02;3.40;99.90
59556;DHT22;45374;52.746;6.304;2023-02-28T08:43:28;3.40;99.90
59556;DHT22;45374;52.746;6.304;2023-02-28T08:45:57;3.50;99.90
59556;DHT22;45374;52.746;6.304;2023-02-28T08:48:24;3.60;99.90
59556;DHT22;45374;52.746;6.304;2023-02-28T08:51:08;3.70;99.90
59556;DHT22;45374;52.746;6.304;2023-02-28T08:53:38;3.70;99.90
59556;DHT22;45374;52.746;6.304;2023-02-28T08:56:10;3.80;99.90
59556;DHT22;45374;52.746;6.304;2023-02-28T08:58:37;3.80;99.90
59556;DHT22;45374;52.746;6.304;2023-02-28T09:01:27;3.70;99.90
59556;DHT22;45374;52.746;6.304;2023-02-28T09:03:53;3.70;99.90
59556;DHT22;45374;52.746;6.304;2023-02-28T09:06:21;3.70;99.90
59556;DHT22;45374;52.746;6.304;2023-02-28T09:08:48;3.80;99.90
59556;DHT22;45374;52.746;6.304;2023-02-28T09:11:13;3.80;99.90
59556;DHT22;45374;52.746;6.304;2023-02-28T09:13:39;3.90;99.90
59556;DHT22;45374;52.746;6.304;2023-02-28T09:16:08;3.90;99.90
59556;DHT22;45374;52.746;6.304;2023-02-28T09:18:34;4.00;99.90
59556;DHT22;45374;52.746;6.304;2023-02-28T09:21:04;4.20;99.90
59556;DHT22;45374;52.746;6.304;2023-02-28T09:23:30;4.20;99.90
59556;DHT22;45374;52.746;6.304;2023-02-28T09:25:55;4.30;99.90
59556;DHT22;45374;52.746;6.304;2023-02-28T09:28:21;4.40;99.90
59556;DHT22;45374;52.746;6.304;2023-02-28T09:30:49;4.50;99.90
59556;DHT22;45374;52.746;6.304;2023-02-28T09:33:16;4.60;99.90
59556;DHT22;45374;52.746;6.304;2023-02-28T09:35:43;4.70;99.90
59556;DHT22;45374;52.746;6.304;2023-02-28T09:38:09;4.70;99.90
59556;DHT22;45374;52.746;6.304;2023-02-28T09:40:38;4.80;99.90
59556;DHT22;45374;52.746;6.304;2023-02-28T09:43:05;4.90;99.90
59556;DHT22;45374;52.746;6.304;2023-02-28T09:45:37;5.00;99.90
59556;DHT22;45374;52.746;6.304;2023-02-28T09:48:17;5.10;99.90
59556;DHT22;45374;52.746;6.304;2023-02-28T09:50:54;5.10;99.90
59556;DHT22;45374;52.746;6.304;2023-02-28T09:53:32;5.20;99.90
59556;DHT22;45374;52.746;6.304;2023-02-28T09:56:06;5.20;99.90
59556;DHT22;45374;52.746;6.304;2023-02-28T09:58:47;5.30;99.90
59556;DHT22;45374;52.746;6.304;2023-02-28T10:06:44;5.10;99.90
59556;DHT22;45374;52.746;6.304;2023-02-28T10:09:18;5.10;99.90
59556;DHT22;45374;52.746;6.304;2023-02-28T10:11:46;5.20;99.90
59556;DHT22;45374;52.746;6.304;2023-02-28T10:14:27;5.30;99.90
59556;DHT22;45374;52.746;6.304;2023-02-28T10:17:01;5.30;99.90
59556;DHT22;45374;52.746;6.304;2023-02-28T10:22:20;5.30;99.90
59556;DHT22;45374;52.746;6.304;2023-02-28T10:24:50;5.40;99.90
59556;DHT22;45374;52.746;6.304;2023-02-28T10:27:39;5.40;99.90
59556;DHT22;45374;52.746;6.304;2023-02-28T10:30:05;5.50;99.90
59556;DHT22;45374;52.746;6.304;2023-02-28T10:32:33;5.60;99.90
59556;DHT22;45374;52.746;6.304;2023-02-28T10:37:37;5.70;99.90
59556;DHT22;45374;52.746;6.304;2023-02-28T10:40:06;5.60;99.90
59556;DHT22;45374;52.746;6.304;2023-02-28T10:42:32;5.70;99.90
59556;DHT22;45374;52.746;6.304;2023-02-28T10:45:16;5.70;99.90
59556;DHT22;45374;52.746;6.304;2023-02-28T10:47:53;5.70;99.90
59556;DHT22;45374;52.746;6.304;2023-02-28T10:50:28;5.70;99.90
59556;DHT22;45374;52.746;6.304;2023-02-28T10:52:54;5.70;99.90
59556;DHT22;45374;52.746;6.304;2023-02-28T10:55:21;5.80;99.90
59556;DHT22;45374;52.746;6.304;2023-02-28T10:57:47;5.80;99.90
59556;DHT22;45374;52.746;6.304;2023-02-28T11:00:25;5.90;99.90
59556;DHT22;45374;52.746;6.304;2023-02-28T11:02:56;5.90;99.90
59556;DHT22;45374;52.746;6.304;2023-02-28T11:05:33;5.90;99.90
59556;DHT22;45374;52.746;6.304;2023-02-28T11:08:12;6.00;99.90
59556;DHT22;45374;52.746;6.304;2023-02-28T11:10:39;6.10;99.90
59556;DHT22;45374;52.746;6.304;2023-02-28T11:13:05;6.10;99.90
59556;DHT22;45374;52.746;6.304;2023-02-28T11:15:33;6.20;99.90
59556;DHT22;45374;52.746;6.304;2023-02-28T11:20:54;6.30;99.90
59556;DHT22;45374;52.746;6.304;2023-02-28T11:23:25;6.20;99.90
59556;DHT22;45374;52.746;6.304;2023-02-28T11:25:54;6.30;99.90
59556;DHT22;45374;52.746;6.304;2023-02-28T11:33:49;6.20;99.90
59556;DHT22;45374;52.746;6.304;2023-02-28T11:36:25;6.10;99.90
59556;DHT22;45374;52.746;6.304;2023-02-28T11:38:53;6.10;99.90
59556;DHT22;45374;52.746;6.304;2023-02-28T11:41:28;6.20;99.90
59556;DHT22;45374;52.746;6.304;2023-02-28T11:46:35;6.30;99.90
59556;DHT22;45374;52.746;6.304;2023-02-28T11:49:31;6.20;99.90
59556;DHT22;45374;52.746;6.304;2023-02-28T11:52:02;6.30;99.90
59556;DHT22;45374;52.746;6.304;2023-02-28T11:55:07;6.30;99.90
59556;DHT22;45374;52.746;6.304;2023-02-28T11:57:56;6.30;99.90
59556;DHT22;45374;52.746;6.304;2023-02-28T12:05:58;6.20;99.90
59556;DHT22;45374;52.746;6.304;2023-02-28T12:27:12;6.40;99.90
59556;DHT22;45374;52.746;6.304;2023-02-28T12:29:58;6.40;99.90
59556;DHT22;45374;52.746;6.304;2023-02-28T12:35:01;6.50;99.90
59556;DHT22;45374;52.746;6.304;2023-02-28T12:37:33;6.50;99.90
59556;DHT22;45374;52.746;6.304;2023-02-28T12:40:11;6.50;99.90
59556;DHT22;45374;52.746;6.304;2023-02-28T12:42:41;6.60;99.90
59556;DHT22;45374;52.746;6.304;2023-02-28T12:45:18;6.50;99.90
59556;DHT22;45374;52.746;6.304;2023-02-28T12:47:48;6.50;99.90
59556;DHT22;45374;52.746;6.304;2023-02-28T12:50:15;6.60;99.90
59556;DHT22;45374;52.746;6.304;2023-02-28T12:56:06;6.60;99.90
59556;DHT22;45374;52.746;6.304;2023-02-28T12:58:35;6.60;99.90
59556;DHT22;45374;52.746;6.304;2023-02-28T13:01:42;6.60;99.90
59556;DHT22;45374;52.746;6.304;2023-02-28T13:09:39;6.70;99.90
59556;DHT22;45374;52.746;6.304;2023-02-28T13:12:15;6.80;99.90
59556;DHT22;45374;52.746;6.304;2023-02-28T13:14:42;6.80;99.90
59556;DHT22;45374;52.746;6.304;2023-02-28T13:22:40;6.80;99.90
59556;DHT22;45374;52.746;6.304;2023-02-28T13:28:10;6.90;99.90
59556;DHT22;45374;52.746;6.304;2023-02-28T13:33:37;6.80;99.90
59556;DHT22;45374;52.746;6.304;2023-02-28T13:38:46;6.90;99.90
59556;DHT22;45374;52.746;6.304;2023-02-28T13:49:26;7.00;99.90
59556;DHT22;45374;52.746;6.304;2023-02-28T14:05:27;6.90;99.90
59556;DHT22;45374;52.746;6.304;2023-02-28T14:07:57;7.00;99.90
59556;DHT22;45374;52.746;6.304;2023-02-28T14:15:39;7.00;99.90
59556;DHT22;45374;52.746;6.304;2023-02-28T14:18:34;7.00;99.90
59556;DHT22;45374;52.746;6.304;2023-02-28T14:21:27;7.00;99.90
59556;DHT22;45374;52.746;6.304;2023-02-28T14:24:20;7.00;99.90
59556;DHT22;45374;52.746;6.304;2023-02-28T14:27:11;7.10;99.90
59556;DHT22;45374;52.746;6.304;2023-02-28T14:35:36;7.10;99.90
59556;DHT22;45374;52.746;6.304;2023-02-28T14:38:08;7.10;99.90
59556;DHT22;45374;52.746;6.304;2023-02-28T14:40:39;7.10;99.90
59556;DHT22;45374;52.746;6.304;2023-02-28T14:43:19;7.10;99.90
59556;DHT22;45374;52.746;6.304;2023-02-28T14:45:50;7.00;99.90
59556;DHT22;45374;52.746;6.304;2023-02-28T14:48:17;7.00;99.90
59556;DHT22;45374;52.746;6.304;2023-02-28T14:50:50;6.90;99.90
59556;DHT22;45374;52.746;6.304;2023-02-28T14:53:18;6.90;99.90
59556;DHT22;45374;52.746;6.304;2023-02-28T14:55:46;6.90;99.90
59556;DHT22;45374;52.746;6.304;2023-02-28T14:58:26;6.90;99.90
59556;DHT22;45374;52.746;6.304;2023-02-28T15:00:54;6.90;99.90
59556;DHT22;45374;52.746;6.304;2023-02-28T15:03:23;6.80;99.90
59556;DHT22;45374;52.746;6.304;2023-02-28T15:05:57;6.80;99.90
59556;DHT22;45374;52.746;6.304;2023-02-28T15:08:23;6.80;99.90
59556;DHT22;45374;52.746;6.304;2023-02-28T15:11:01;6.80;99.90
59556;DHT22;45374;52.746;6.304;2023-02-28T15:13:36;6.80;99.90
59556;DHT22;45374;52.746;6.304;2023-02-28T15:16:05;6.80;99.90
59556;DHT22;45374;52.746;6.304;2023-02-28T15:18:49;6.80;99.90
59556;DHT22;45374;52.746;6.304;2023-02-28T15:21:17;6.70;99.90
59556;DHT22;45374;52.746;6.304;2023-02-28T15:23:46;6.80;99.90
59556;DHT22;45374;52.746;6.304;2023-02-28T15:26:16;6.70;99.90
59556;DHT22;45374;52.746;6.304;2023-02-28T15:28:42;6.70;99.90
59556;DHT22;45374;52.746;6.304;2023-02-28T15:31:34;6.70;99.90
59556;DHT22;45374;52.746;6.304;2023-02-28T15:34:05;6.70;99.90
59556;DHT22;45374;52.746;6.304;2023-02-28T15:36:33;6.70;99.90
59556;DHT22;45374;52.746;6.304;2023-02-28T15:39:16;6.70;99.90
59556;DHT22;45374;52.746;6.304;2023-02-28T15:41:43;6.70;99.90
59556;DHT22;45374;52.746;6.304;2023-02-28T15:44:38;6.70;99.90
59556;DHT22;45374;52.746;6.304;2023-02-28T15:47:11;6.70;99.90
59556;DHT22;45374;52.746;6.304;2023-02-28T15:49:47;6.70;99.90
59556;DHT22;45374;52.746;6.304;2023-02-28T15:52:21;6.80;99.90
59556;DHT22;45374;52.746;6.304;2023-02-28T15:54:48;6.70;99.90
59556;DHT22;45374;52.746;6.304;2023-02-28T15:57:18;6.60;99.90
59556;DHT22;45374;52.746;6.304;2023-02-28T15:59:57;6.60;99.90
59556;DHT22;45374;52.746;6.304;2023-02-28T16:02:34;6.60;99.90
59556;DHT22;45374;52.746;6.304;2023-02-28T16:07:54;6.70;99.90
59556;DHT22;45374;52.746;6.304;2023-02-28T16:10:21;6.70;99.90
59556;DHT22;45374;52.746;6.304;2023-02-28T16:12:50;6.70;99.90
59556;DHT22;45374;52.746;6.304;2023-02-28T16:15:29;6.70;99.90
59556;DHT22;45374;52.746;6.304;2023-02-28T16:17:57;6.60;99.90
59556;DHT22;45374;52.746;6.304;2023-02-28T16:20:25;6.60;99.90
59556;DHT22;45374;52.746;6.304;2023-02-28T16:22:51;6.50;99.90
59556;DHT22;45374;52.746;6.304;2023-02-28T16:25:20;6.50;99.90
59556;DHT22;45374;52.746;6.304;2023-02-28T16:27:48;6.50;99.90
59556;DHT22;45374;52.746;6.304;2023-02-28T16:30:22;6.40;99.90
59556;DHT22;45374;52.746;6.304;2023-02-28T16:32:49;6.40;99.90
59556;DHT22;45374;52.746;6.304;2023-02-28T16:35:16;6.30;99.90
59556;DHT22;45374;52.746;6.304;2023-02-28T16:37:43;6.20;99.90
59556;DHT22;45374;52.746;6.304;2023-02-28T16:40:17;6.10;99.90
59556;DHT22;45374;52.746;6.304;2023-02-28T16:42:45;6.00;99.90
59556;DHT22;45374;52.746;6.304;2023-02-28T16:45:20;5.90;99.90
59556;DHT22;45374;52.746;6.304;2023-02-28T16:47:47;5.80;99.90
59556;DHT22;45374;52.746;6.304;2023-02-28T16:50:19;5.70;99.90
59556;DHT22;45374;52.746;6.304;2023-02-28T16:52:45;5.70;99.90
59556;DHT22;45374;52.746;6.304;2023-02-28T16:55:11;5.60;99.90
59556;DHT22;45374;52.746;6.304;2023-02-28T16:57:38;5.50;99.90
59556;DHT22;45374;52.746;6.304;2023-02-28T17:00:05;5.50;99.90
59556;DHT22;45374;52.746;6.304;2023-02-28T17:02:33;5.40;99.90
59556;DHT22;45374;52.746;6.304;2023-02-28T17:04:59;5.30;99.90
59556;DHT22;45374;52.746;6.304;2023-02-28T17:07:25;5.10;99.90
59556;DHT22;45374;52.746;6.304;2023-02-28T17:09:51;5.00;99.90
59556;DHT22;45374;52.746;6.304;2023-02-28T17:12:16;4.90;99.90
59556;DHT22;45374;52.746;6.304;2023-02-28T17:14:42;4.80;99.90
59556;DHT22;45374;52.746;6.304;2023-02-28T17:17:13;4.80;99.90
59556;DHT22;45374;52.746;6.304;2023-02-28T17:19:40;4.80;99.90
59556;DHT22;45374;52.746;6.304;2023-02-28T17:22:08;4.70;99.90
59556;DHT22;45374;52.746;6.304;2023-02-28T17:24:34;4.70;99.90
59556;DHT22;45374;52.746;6.304;2023-02-28T17:27:00;4.60;99.90
59556;DHT22;45374;52.746;6.304;2023-02-28T17:29:26;4.60;99.90
59556;DHT22;45374;52.746;6.304;2023-02-28T17:31:52;4.60;99.90
59556;DHT22;45374;52.746;6.304;2023-02-28T17:34:18;4.50;99.90
59556;DHT22;45374;52.746;6.304;2023-02-28T17:36:49;4.40;99.90
59556;DHT22;45374;52.746;6.304;2023-02-28T17:39:16;4.40;99.90
59556;DHT22;45374;52.746;6.304;2023-02-28T17:41:53;4.30;99.90
59556;DHT22;45374;52.746;6.304;2023-02-28T17:44:19;4.20;99.90
59556;DHT22;45374;52.746;6.304;2023-02-28T17:46:45;4.10;99.90
59556;DHT22;45374;52.746;6.304;2023-02-28T17:49:12;3.90;99.90
59556;DHT22;45374;52.746;6.304;2023-02-28T17:51:37;3.80;99.90
59556;DHT22;45374;52.746;6.304;2023-02-28T17:54:03;3.70;99.90
59556;DHT22;45374;52.746;6.304;2023-02-28T17:56:29;3.70;99.90
59556;DHT22;45374;52.746;6.304;2023-02-28T17:58:55;3.50;99.90
59556;DHT22;45374;52.746;6.304;2023-02-28T18:01:22;3.40;99.90
59556;DHT22;45374;52.746;6.304;2023-02-28T18:03:49;3.30;99.90
59556;DHT22;45374;52.746;6.304;2023-02-28T18:06:24;3.20;99.90
59556;DHT22;45374;52.746;6.304;2023-02-28T18:08:51;3.20;99.90
59556;DHT22;45374;52.746;6.304;2023-02-28T18:11:17;3.20;99.90
59556;DHT22;45374;52.746;6.304;2023-02-28T18:13:53;3.30;99.90
59556;DHT22;45374;52.746;6.304;2023-02-28T18:16:22;3.40;99.90
59556;DHT22;45374;52.746;6.304;2023-02-28T18:18:48;3.40;99.90
59556;DHT22;45374;52.746;6.304;2023-02-28T18:21:15;3.30;99.90
59556;DHT22;45374;52.746;6.304;2023-02-28T18:23:42;3.30;99.90
59556;DHT22;45374;52.746;6.304;2023-02-28T18:26:17;3.10;99.90
59556;DHT22;45374;52.746;6.304;2023-02-28T18:28:44;3.00;99.90